Joppa, Alabama
Current Conditions -  °F | °C
As of 1:15 AM on Thursday 18 Dec 2014 (Local Time) from KCMD Reporting Station
Clear Clear  
Wind Chill: 35°   Ceiling: Unl
Heat Index: 35°   Visibility: 10mi
Dew Point: 31°   Wind: 3mph
Humidity: 87%   Direction: 340°NNW
Pressure: 30.2"   Gusts: NA
Location:  34.3°N, 86.56°W
Report Text: KCMD 180715Z AUTO 34003KT 10SM CLR 02/00 A3020 RMK AO2 T00151005
Loading
Personal Weather Stations






























Interactive Weather Map New forecast layout! Learn more

10-Day Weather Forecast

Advertisements
Track Severe Weather on mobile